sensor_id;sensor_type;location;lat;lon;timestamp;temperature;humidity
32698;DHT22;19087;51.062;3.754;2022-09-09T00:00:24;15.50;99.90
32698;DHT22;19087;51.062;3.754;2022-09-09T00:02:57;15.50;99.90
32698;DHT22;19087;51.062;3.754;2022-09-09T00:05:46;15.50;99.90
32698;DHT22;19087;51.062;3.754;2022-09-09T00:08:21;15.60;99.90
32698;DHT22;19087;51.062;3.754;2022-09-09T00:11:08;15.60;99.90
32698;DHT22;19087;51.062;3.754;2022-09-09T00:13:43;15.60;99.90
32698;DHT22;19087;51.062;3.754;2022-09-09T00:19:00;15.60;99.90
32698;DHT22;19087;51.062;3.754;2022-09-09T00:21:35;15.60;99.90
32698;DHT22;19087;51.062;3.754;2022-09-09T00:24:10;15.60;99.90
32698;DHT22;19087;51.062;3.754;2022-09-09T00:26:44;15.60;99.90
32698;DHT22;19087;51.062;3.754;2022-09-09T00:31:38;15.60;99.90
32698;DHT22;19087;51.062;3.754;2022-09-09T00:36:39;15.50;99.90
32698;DHT22;19087;51.062;3.754;2022-09-09T00:39:13;15.40;99.90
32698;DHT22;19087;51.062;3.754;2022-09-09T00:44:50;15.30;99.90
32698;DHT22;19087;51.062;3.754;2022-09-09T00:47:49;15.30;99.90
32698;DHT22;19087;51.062;3.754;2022-09-09T01:01:40;15.20;99.90
32698;DHT22;19087;51.062;3.754;2022-09-09T01:04:12;15.10;99.90
32698;DHT22;19087;51.062;3.754;2022-09-09T01:06:41;15.20;99.90
32698;DHT22;19087;51.062;3.754;2022-09-09T01:09:31;15.10;99.90
32698;DHT22;19087;51.062;3.754;2022-09-09T01:12:15;15.10;99.90
32698;DHT22;19087;51.062;3.754;2022-09-09T01:14:49;15.10;99.90
32698;DHT22;19087;51.062;3.754;2022-09-09T01:17:22;15.10;99.90
32698;DHT22;19087;51.062;3.754;2022-09-09T01:22:56;15.00;99.90
32698;DHT22;19087;51.062;3.754;2022-09-09T01:26:00;15.00;99.90
32698;DHT22;19087;51.062;3.754;2022-09-09T01:28:31;15.00;99.90
32698;DHT22;19087;51.062;3.754;2022-09-09T01:31:00;14.90;99.90
32698;DHT22;19087;51.062;3.754;2022-09-09T01:33:27;14.90;99.90
32698;DHT22;19087;51.062;3.754;2022-09-09T01:36:12;14.90;99.90
32698;DHT22;19087;51.062;3.754;2022-09-09T01:38:39;14.90;99.90
32698;DHT22;19087;51.062;3.754;2022-09-09T01:41:05;14.80;99.90
32698;DHT22;19087;51.062;3.754;2022-09-09T01:43:31;14.80;99.90
32698;DHT22;19087;51.062;3.754;2022-09-09T01:46:00;14.80;99.90
32698;DHT22;19087;51.062;3.754;2022-09-09T01:48:27;14.80;99.90
32698;DHT22;19087;51.062;3.754;2022-09-09T01:50:53;14.80;99.90
32698;DHT22;19087;51.062;3.754;2022-09-09T01:53:21;14.90;99.90
32698;DHT22;19087;51.062;3.754;2022-09-09T02:01:56;14.90;99.90
32698;DHT22;19087;51.062;3.754;2022-09-09T02:04:54;14.80;99.90
32698;DHT22;19087;51.062;3.754;2022-09-09T02:07:41;14.80;99.90
32698;DHT22;19087;51.062;3.754;2022-09-09T02:10:17;14.80;99.90
32698;DHT22;19087;51.062;3.754;2022-09-09T02:12:49;14.80;99.90
32698;DHT22;19087;51.062;3.754;2022-09-09T02:15:47;14.80;99.90
32698;DHT22;19087;51.062;3.754;2022-09-09T02:18:53;14.80;99.90
32698;DHT22;19087;51.062;3.754;2022-09-09T02:21:13;14.80;99.90
32698;DHT22;19087;51.062;3.754;2022-09-09T02:23:42;14.80;99.90
32698;DHT22;19087;51.062;3.754;2022-09-09T02:26:09;14.80;99.90
32698;DHT22;19087;51.062;3.754;2022-09-09T02:28:36;14.90;99.90
32698;DHT22;19087;51.062;3.754;2022-09-09T02:31:04;14.90;99.90
32698;DHT22;19087;51.062;3.754;2022-09-09T02:33:35;15.00;99.90
32698;DHT22;19087;51.062;3.754;2022-09-09T02:36:03;15.10;99.90
32698;DHT22;19087;51.062;3.754;2022-09-09T02:38:35;15.10;99.90
32698;DHT22;19087;51.062;3.754;2022-09-09T02:41:03;15.20;99.90
32698;DHT22;19087;51.062;3.754;2022-09-09T02:43:33;15.20;99.90
32698;DHT22;19087;51.062;3.754;2022-09-09T02:48:40;15.30;99.90
32698;DHT22;19087;51.062;3.754;2022-09-09T02:56:27;15.40;99.90
32698;DHT22;19087;51.062;3.754;2022-09-09T02:58:56;15.40;99.90
32698;DHT22;19087;51.062;3.754;2022-09-09T03:01:21;15.40;99.90
32698;DHT22;19087;51.062;3.754;2022-09-09T03:03:47;15.40;99.90
32698;DHT22;19087;51.062;3.754;2022-09-09T03:06:13;15.30;99.90
32698;DHT22;19087;51.062;3.754;2022-09-09T03:08:40;15.40;99.90
32698;DHT22;19087;51.062;3.754;2022-09-09T03:11:07;15.40;99.90
32698;DHT22;19087;51.062;3.754;2022-09-09T03:13:34;15.40;99.90
32698;DHT22;19087;51.062;3.754;2022-09-09T03:16:00;15.30;99.90
32698;DHT22;19087;51.062;3.754;2022-09-09T03:18:25;15.30;99.90
32698;DHT22;19087;51.062;3.754;2022-09-09T03:20:51;15.30;99.90
32698;DHT22;19087;51.062;3.754;2022-09-09T03:23:17;15.30;99.90
32698;DHT22;19087;51.062;3.754;2022-09-09T03:25:49;15.20;99.90
32698;DHT22;19087;51.062;3.754;2022-09-09T03:28:15;15.20;99.90
32698;DHT22;19087;51.062;3.754;2022-09-09T03:30:41;15.30;99.90
32698;DHT22;19087;51.062;3.754;2022-09-09T03:33:06;15.30;99.90
32698;DHT22;19087;51.062;3.754;2022-09-09T03:35:32;15.30;99.90
32698;DHT22;19087;51.062;3.754;2022-09-09T03:37:58;15.40;99.90
32698;DHT22;19087;51.062;3.754;2022-09-09T03:40:23;15.40;99.90
32698;DHT22;19087;51.062;3.754;2022-09-09T03:42:49;15.40;99.90
32698;DHT22;19087;51.062;3.754;2022-09-09T03:45:15;15.40;99.90
32698;DHT22;19087;51.062;3.754;2022-09-09T03:47:40;15.50;99.90
32698;DHT22;19087;51.062;3.754;2022-09-09T03:50:07;15.60;99.90
32698;DHT22;19087;51.062;3.754;2022-09-09T03:52:39;15.60;99.90
32698;DHT22;19087;51.062;3.754;2022-09-09T03:55:05;15.60;99.90
32698;DHT22;19087;51.062;3.754;2022-09-09T03:57:31;15.60;99.90
32698;DHT22;19087;51.062;3.754;2022-09-09T04:00:02;15.60;99.90
32698;DHT22;19087;51.062;3.754;2022-09-09T04:02:28;15.60;99.90
32698;DHT22;19087;51.062;3.754;2022-09-09T04:04:54;15.60;99.90
32698;DHT22;19087;51.062;3.754;2022-09-09T04:07:19;15.70;99.90
32698;DHT22;19087;51.062;3.754;2022-09-09T04:09:45;15.70;99.90
32698;DHT22;19087;51.062;3.754;2022-09-09T04:12:11;15.60;99.90
32698;DHT22;19087;51.062;3.754;2022-09-09T04:14:38;15.50;99.90
32698;DHT22;19087;51.062;3.754;2022-09-09T04:17:04;15.50;99.90
32698;DHT22;19087;51.062;3.754;2022-09-09T04:19:32;15.50;99.90
32698;DHT22;19087;51.062;3.754;2022-09-09T04:21:58;15.50;99.90
32698;DHT22;19087;51.062;3.754;2022-09-09T04:24:24;15.60;99.90
32698;DHT22;19087;51.062;3.754;2022-09-09T04:26:50;15.60;99.90
32698;DHT22;19087;51.062;3.754;2022-09-09T04:29:16;15.60;99.90
32698;DHT22;19087;51.062;3.754;2022-09-09T04:31:41;15.60;99.90
32698;DHT22;19087;51.062;3.754;2022-09-09T04:34:08;15.60;99.90
32698;DHT22;19087;51.062;3.754;2022-09-09T04:36:34;15.70;99.90
32698;DHT22;19087;51.062;3.754;2022-09-09T04:39:00;15.70;99.90
32698;DHT22;19087;51.062;3.754;2022-09-09T04:41:27;15.70;99.90
32698;DHT22;19087;51.062;3.754;2022-09-09T04:43:54;15.70;99.90
32698;DHT22;19087;51.062;3.754;2022-09-09T04:46:21;15.80;99.90
32698;DHT22;19087;51.062;3.754;2022-09-09T04:48:52;15.70;99.90
32698;DHT22;19087;51.062;3.754;2022-09-09T04:51:18;15.70;99.90
32698;DHT22;19087;51.062;3.754;2022-09-09T04:53:44;15.70;99.90
32698;DHT22;19087;51.062;3.754;2022-09-09T04:56:14;15.70;99.90
32698;DHT22;19087;51.062;3.754;2022-09-09T04:58:41;15.70;99.90
32698;DHT22;19087;51.062;3.754;2022-09-09T05:01:20;15.80;99.90
32698;DHT22;19087;51.062;3.754;2022-09-09T05:03:47;15.80;99.90
32698;DHT22;19087;51.062;3.754;2022-09-09T05:06:18;15.80;99.90
32698;DHT22;19087;51.062;3.754;2022-09-09T05:08:44;15.80;99.90
32698;DHT22;19087;51.062;3.754;2022-09-09T05:11:19;15.70;99.90
32698;DHT22;19087;51.062;3.754;2022-09-09T05:13:52;15.60;99.90
32698;DHT22;19087;51.062;3.754;2022-09-09T05:16:19;15.60;99.90
32698;DHT22;19087;51.062;3.754;2022-09-09T05:18:45;15.60;99.90
32698;DHT22;19087;51.062;3.754;2022-09-09T05:21:12;15.70;99.90
32698;DHT22;19087;51.062;3.754;2022-09-09T05:23:38;15.80;99.90
32698;DHT22;19087;51.062;3.754;2022-09-09T05:26:05;15.80;99.90
32698;DHT22;19087;51.062;3.754;2022-09-09T05:28:34;15.80;99.90
32698;DHT22;19087;51.062;3.754;2022-09-09T05:31:06;15.90;99.90
32698;DHT22;19087;51.062;3.754;2022-09-09T05:33:35;15.90;99.90
32698;DHT22;19087;51.062;3.754;2022-09-09T05:36:14;15.80;99.90
32698;DHT22;19087;51.062;3.754;2022-09-09T05:38:43;15.90;99.90
32698;DHT22;19087;51.062;3.754;2022-09-09T05:41:11;15.90;99.90
32698;DHT22;19087;51.062;3.754;2022-09-09T05:43:39;16.00;99.90
32698;DHT22;19087;51.062;3.754;2022-09-09T05:46:09;16.00;99.90
32698;DHT22;19087;51.062;3.754;2022-09-09T05:48:38;15.90;99.90
32698;DHT22;19087;51.062;3.754;2022-09-09T05:51:05;16.00;99.90
32698;DHT22;19087;51.062;3.754;2022-09-09T05:53:33;16.00;99.90
32698;DHT22;19087;51.062;3.754;2022-09-09T05:56:09;16.10;99.90
32698;DHT22;19087;51.062;3.754;2022-09-09T05:58:36;16.10;99.90
32698;DHT22;19087;51.062;3.754;2022-09-09T06:03:35;16.30;99.90
32698;DHT22;19087;51.062;3.754;2022-09-09T06:06:04;16.20;99.90
32698;DHT22;19087;51.062;3.754;2022-09-09T06:08:34;16.20;99.90
32698;DHT22;19087;51.062;3.754;2022-09-09T06:11:08;16.20;99.90
32698;DHT22;19087;51.062;3.754;2022-09-09T06:13:33;16.20;99.90
32698;DHT22;19087;51.062;3.754;2022-09-09T06:16:00;16.10;99.90
32698;DHT22;19087;51.062;3.754;2022-09-09T06:18:26;16.00;99.90
32698;DHT22;19087;51.062;3.754;2022-09-09T06:21:03;16.00;99.90
32698;DHT22;19087;51.062;3.754;2022-09-09T06:23:30;15.90;99.90
32698;DHT22;19087;51.062;3.754;2022-09-09T06:28:34;15.90;99.90
32698;DHT22;19087;51.062;3.754;2022-09-09T06:31:03;15.80;99.90
32698;DHT22;19087;51.062;3.754;2022-09-09T06:33:34;15.80;99.90
32698;DHT22;19087;51.062;3.754;2022-09-09T06:36:01;15.80;99.90
32698;DHT22;19087;51.062;3.754;2022-09-09T06:38:27;15.80;99.90
32698;DHT22;19087;51.062;3.754;2022-09-09T06:40:58;15.90;99.90
32698;DHT22;19087;51.062;3.754;2022-09-09T06:43:28;15.80;99.90
32698;DHT22;19087;51.062;3.754;2022-09-09T06:45:59;15.90;99.90
32698;DHT22;19087;51.062;3.754;2022-09-09T06:48:25;16.00;99.90
32698;DHT22;19087;51.062;3.754;2022-09-09T06:53:32;16.10;99.90
32698;DHT22;19087;51.062;3.754;2022-09-09T06:56:00;16.20;99.90
32698;DHT22;19087;51.062;3.754;2022-09-09T06:58:29;16.40;99.90
32698;DHT22;19087;51.062;3.754;2022-09-09T07:01:07;16.40;99.90
32698;DHT22;19087;51.062;3.754;2022-09-09T07:03:34;16.60;99.90
32698;DHT22;19087;51.062;3.754;2022-09-09T07:06:00;16.70;99.90
32698;DHT22;19087;51.062;3.754;2022-09-09T07:08:26;17.20;99.90
32698;DHT22;19087;51.062;3.754;2022-09-09T07:10:53;17.60;99.90
32698;DHT22;19087;51.062;3.754;2022-09-09T07:13:26;17.70;99.90
32698;DHT22;19087;51.062;3.754;2022-09-09T07:15:52;17.90;99.90
32698;DHT22;19087;51.062;3.754;2022-09-09T07:18:19;18.00;99.90
32698;DHT22;19087;51.062;3.754;2022-09-09T07:20:55;18.10;99.90
32698;DHT22;19087;51.062;3.754;2022-09-09T07:23:21;18.00;99.90
32698;DHT22;19087;51.062;3.754;2022-09-09T07:25:47;17.80;99.90
32698;DHT22;19087;51.062;3.754;2022-09-09T07:28:14;17.80;99.90
32698;DHT22;19087;51.062;3.754;2022-09-09T07:30:40;17.80;99.90
32698;DHT22;19087;51.062;3.754;2022-09-09T07:33:07;18.00;99.90
32698;DHT22;19087;51.062;3.754;2022-09-09T07:35:35;18.30;99.90
32698;DHT22;19087;51.062;3.754;2022-09-09T07:38:02;18.40;99.90
32698;DHT22;19087;51.062;3.754;2022-09-09T07:40:32;18.60;99.90
32698;DHT22;19087;51.062;3.754;2022-09-09T07:42:59;18.60;99.90
32698;DHT22;19087;51.062;3.754;2022-09-09T07:45:25;18.80;99.90
32698;DHT22;19087;51.062;3.754;2022-09-09T07:47:54;18.70;99.90
32698;DHT22;19087;51.062;3.754;2022-09-09T07:50:20;18.50;99.90
32698;DHT22;19087;51.062;3.754;2022-09-09T07:52:46;18.40;99.90
32698;DHT22;19087;51.062;3.754;2022-09-09T07:55:12;18.10;99.90
32698;DHT22;19087;51.062;3.754;2022-09-09T07:57:37;18.10;99.90
32698;DHT22;19087;51.062;3.754;2022-09-09T08:00:04;17.90;99.90
32698;DHT22;19087;51.062;3.754;2022-09-09T08:02:30;17.80;99.90
32698;DHT22;19087;51.062;3.754;2022-09-09T08:04:56;17.60;99.90
32698;DHT22;19087;51.062;3.754;2022-09-09T08:07:22;17.50;99.90
32698;DHT22;19087;51.062;3.754;2022-09-09T08:09:48;17.30;99.90
32698;DHT22;19087;51.062;3.754;2022-09-09T08:12:14;17.20;99.90
32698;DHT22;19087;51.062;3.754;2022-09-09T08:14:40;17.20;99.90
32698;DHT22;19087;51.062;3.754;2022-09-09T08:17:07;17.00;99.90
32698;DHT22;19087;51.062;3.754;2022-09-09T08:19:33;16.80;99.90
32698;DHT22;19087;51.062;3.754;2022-09-09T08:22:01;16.70;99.90
32698;DHT22;19087;51.062;3.754;2022-09-09T08:24:28;16.70;99.90
32698;DHT22;19087;51.062;3.754;2022-09-09T08:26:54;16.70;99.90
32698;DHT22;19087;51.062;3.754;2022-09-09T08:29:21;16.60;99.90
32698;DHT22;19087;51.062;3.754;2022-09-09T08:31:49;16.70;99.90
32698;DHT22;19087;51.062;3.754;2022-09-09T08:34:15;16.70;99.90
32698;DHT22;19087;51.062;3.754;2022-09-09T08:36:42;16.60;99.90
32698;DHT22;19087;51.062;3.754;2022-09-09T08:39:10;16.60;99.90
32698;DHT22;19087;51.062;3.754;2022-09-09T08:55:24;16.80;99.90
32698;DHT22;19087;51.062;3.754;2022-09-09T08:57:53;17.00;99.90
32698;DHT22;19087;51.062;3.754;2022-09-09T09:00:20;17.10;99.90
32698;DHT22;19087;51.062;3.754;2022-09-09T09:03:01;17.00;99.90
32698;DHT22;19087;51.062;3.754;2022-09-09T09:05:41;16.90;99.90
32698;DHT22;19087;51.062;3.754;2022-09-09T09:10:49;17.00;99.90
32698;DHT22;19087;51.062;3.754;2022-09-09T09:16:02;16.90;99.90
32698;DHT22;19087;51.062;3.754;2022-09-09T09:18:31;16.80;99.90
32698;DHT22;19087;51.062;3.754;2022-09-09T09:21:03;17.00;99.90
32698;DHT22;19087;51.062;3.754;2022-09-09T09:23:39;17.10;99.90
32698;DHT22;19087;51.062;3.754;2022-09-09T09:26:09;17.10;99.90
32698;DHT22;19087;51.062;3.754;2022-09-09T09:28:36;17.30;99.90
32698;DHT22;19087;51.062;3.754;2022-09-09T09:31:07;17.80;99.90
32698;DHT22;19087;51.062;3.754;2022-09-09T09:33:47;18.10;99.90
32698;DHT22;19087;51.062;3.754;2022-09-09T09:36:15;18.30;99.90
32698;DHT22;19087;51.062;3.754;2022-09-09T09:43:55;19.00;99.90
32698;DHT22;19087;51.062;3.754;2022-09-09T09:46:22;18.80;99.90
32698;DHT22;19087;51.062;3.754;2022-09-09T09:48:59;18.70;99.90
32698;DHT22;19087;51.062;3.754;2022-09-09T09:51:26;18.80;99.90
32698;DHT22;19087;51.062;3.754;2022-09-09T09:53:53;18.60;99.90
32698;DHT22;19087;51.062;3.754;2022-09-09T09:56:28;18.50;99.90
32698;DHT22;19087;51.062;3.754;2022-09-09T09:58:55;18.50;99.90
32698;DHT22;19087;51.062;3.754;2022-09-09T10:01:23;18.60;99.90
32698;DHT22;19087;51.062;3.754;2022-09-09T10:04:13;18.70;99.90
32698;DHT22;19087;51.062;3.754;2022-09-09T10:06:41;18.70;99.90
32698;DHT22;19087;51.062;3.754;2022-09-09T10:09:28;18.80;99.90
32698;DHT22;19087;51.062;3.754;2022-09-09T10:21:03;18.50;99.90
32698;DHT22;19087;51.062;3.754;2022-09-09T10:26:27;18.80;99.90
32698;DHT22;19087;51.062;3.754;2022-09-09T10:29:35;19.50;99.90
32698;DHT22;19087;51.062;3.754;2022-09-09T10:34:57;19.60;99.90
32698;DHT22;19087;51.062;3.754;2022-09-09T10:51:40;19.30;99.90
32698;DHT22;19087;51.062;3.754;2022-09-09T10:57:03;20.40;99.90
32698;DHT22;19087;51.062;3.754;2022-09-09T10:59:32;20.20;99.90
32698;DHT22;19087;51.062;3.754;2022-09-09T11:02:05;20.30;99.90
32698;DHT22;19087;51.062;3.754;2022-09-09T11:04:48;20.20;99.90
32698;DHT22;19087;51.062;3.754;2022-09-09T11:07:22;20.20;99.90
32698;DHT22;19087;51.062;3.754;2022-09-09T11:09:55;19.90;99.90
32698;DHT22;19087;51.062;3.754;2022-09-09T11:12:23;19.80;99.90
32698;DHT22;19087;51.062;3.754;2022-09-09T11:14:58;19.70;99.90
32698;DHT22;19087;51.062;3.754;2022-09-09T11:17:33;19.80;99.90
32698;DHT22;19087;51.062;3.754;2022-09-09T11:20:01;19.70;99.90
32698;DHT22;19087;51.062;3.754;2022-09-09T11:22:32;20.50;99.90
32698;DHT22;19087;51.062;3.754;2022-09-09T11:25:10;21.10;99.90
32698;DHT22;19087;51.062;3.754;2022-09-09T11:30:31;21.30;99.90
32698;DHT22;19087;51.062;3.754;2022-09-09T11:35:49;21.90;99.90
32698;DHT22;19087;51.062;3.754;2022-09-09T11:40:45;21.60;99.90
32698;DHT22;19087;51.062;3.754;2022-09-09T11:43:17;20.60;99.90
32698;DHT22;19087;51.062;3.754;2022-09-09T11:45:52;20.50;99.90
32698;DHT22;19087;51.062;3.754;2022-09-09T11:48:29;21.00;99.90
32698;DHT22;19087;51.062;3.754;2022-09-09T11:53:28;21.30;99.90
32698;DHT22;19087;51.062;3.754;2022-09-09T11:56:24;21.10;99.90
32698;DHT22;19087;51.062;3.754;2022-09-09T12:01:50;20.40;99.90
32698;DHT22;19087;51.062;3.754;2022-09-09T12:04:37;20.60;99.90
32698;DHT22;19087;51.062;3.754;2022-09-09T12:12:30;20.50;99.90
32698;DHT22;19087;51.062;3.754;2022-09-09T12:17:45;21.50;99.90
32698;DHT22;19087;51.062;3.754;2022-09-09T12:20:19;21.60;99.90
32698;DHT22;19087;51.062;3.754;2022-09-09T12:23:13;21.90;99.90
32698;DHT22;19087;51.062;3.754;2022-09-09T12:32:06;22.10;99.90
32698;DHT22;19087;51.062;3.754;2022-09-09T12:34:41;21.90;99.90
32698;DHT22;19087;51.062;3.754;2022-09-09T12:40:05;21.60;99.90
32698;DHT22;19087;51.062;3.754;2022-09-09T12:42:31;21.70;99.90
32698;DHT22;19087;51.062;3.754;2022-09-09T12:45:03;21.60;99.90
32698;DHT22;19087;51.062;3.754;2022-09-09T12:47:38;21.60;99.90
32698;DHT22;19087;51.062;3.754;2022-09-09T12:50:19;21.60;99.90
32698;DHT22;19087;51.062;3.754;2022-09-09T12:52:47;21.70;99.90
32698;DHT22;19087;51.062;3.754;2022-09-09T12:55:23;21.70;99.90
32698;DHT22;19087;51.062;3.754;2022-09-09T12:57:51;21.60;99.90
32698;DHT22;19087;51.062;3.754;2022-09-09T13:00:20;21.80;99.90
32698;DHT22;19087;51.062;3.754;2022-09-09T13:02:52;21.90;99.90
32698;DHT22;19087;51.062;3.754;2022-09-09T13:05:21;22.00;99.90
32698;DHT22;19087;51.062;3.754;2022-09-09T13:07:48;21.70;99.90
32698;DHT22;19087;51.062;3.754;2022-09-09T13:10:15;21.50;99.90
32698;DHT22;19087;51.062;3.754;2022-09-09T13:12:47;21.70;99.90
32698;DHT22;19087;51.062;3.754;2022-09-09T13:15:22;21.90;99.90
32698;DHT22;19087;51.062;3.754;2022-09-09T13:17:55;22.10;99.90
32698;DHT22;19087;51.062;3.754;2022-09-09T13:20:22;21.70;99.90
32698;DHT22;19087;51.062;3.754;2022-09-09T13:22:49;21.60;99.90
32698;DHT22;19087;51.062;3.754;2022-09-09T13:25:28;22.00;99.90
32698;DHT22;19087;51.062;3.754;2022-09-09T13:27:59;22.20;99.90
32698;DHT22;19087;51.062;3.754;2022-09-09T13:30:33;22.40;99.90
32698;DHT22;19087;51.062;3.754;2022-09-09T13:33:04;22.10;99.90
32698;DHT22;19087;51.062;3.754;2022-09-09T13:35:30;22.20;99.90
32698;DHT22;19087;51.062;3.754;2022-09-09T13:37:57;22.70;99.90
32698;DHT22;19087;51.062;3.754;2022-09-09T13:40:24;22.90;99.90
32698;DHT22;19087;51.062;3.754;2022-09-09T13:42:57;23.20;99.90
32698;DHT22;19087;51.062;3.754;2022-09-09T13:45:25;23.10;99.90
32698;DHT22;19087;51.062;3.754;2022-09-09T13:47:54;23.40;99.90
32698;DHT22;19087;51.062;3.754;2022-09-09T13:50:26;23.30;99.90
32698;DHT22;19087;51.062;3.754;2022-09-09T13:52:55;23.20;99.90
32698;DHT22;19087;51.062;3.754;2022-09-09T13:55:22;22.90;99.90
32698;DHT22;19087;51.062;3.754;2022-09-09T13:58:02;23.00;99.90
32698;DHT22;19087;51.062;3.754;2022-09-09T14:00:34;23.00;99.90
32698;DHT22;19087;51.062;3.754;2022-09-09T14:03:00;22.90;99.90
32698;DHT22;19087;51.062;3.754;2022-09-09T14:05:28;22.90;99.90
32698;DHT22;19087;51.062;3.754;2022-09-09T14:07:55;22.80;99.90
32698;DHT22;19087;51.062;3.754;2022-09-09T14:10:21;22.60;99.90
32698;DHT22;19087;51.062;3.754;2022-09-09T14:12:47;22.80;99.90
32698;DHT22;19087;51.062;3.754;2022-09-09T14:15:13;22.60;99.90
32698;DHT22;19087;51.062;3.754;2022-09-09T14:17:39;22.50;99.90
32698;DHT22;19087;51.062;3.754;2022-09-09T14:20:07;22.50;99.90
32698;DHT22;19087;51.062;3.754;2022-09-09T14:22:35;22.50;99.90
32698;DHT22;19087;51.062;3.754;2022-09-09T14:25:01;22.40;99.90
32698;DHT22;19087;51.062;3.754;2022-09-09T14:27:27;22.40;99.90
32698;DHT22;19087;51.062;3.754;2022-09-09T14:29:54;22.50;99.90
32698;DHT22;19087;51.062;3.754;2022-09-09T14:32:20;22.60;99.90
32698;DHT22;19087;51.062;3.754;2022-09-09T14:34:46;22.50;99.90
32698;DHT22;19087;51.062;3.754;2022-09-09T14:37:15;22.50;99.90
32698;DHT22;19087;51.062;3.754;2022-09-09T14:39:42;22.60;99.90
32698;DHT22;19087;51.062;3.754;2022-09-09T14:42:10;23.00;99.90
32698;DHT22;19087;51.062;3.754;2022-09-09T14:44:38;23.40;99.90
32698;DHT22;19087;51.062;3.754;2022-09-09T14:47:05;23.70;99.90
32698;DHT22;19087;51.062;3.754;2022-09-09T14:49:30;24.00;99.90
32698;DHT22;19087;51.062;3.754;2022-09-09T14:51:56;24.10;99.90
32698;DHT22;19087;51.062;3.754;2022-09-09T14:54:25;24.00;99.90
32698;DHT22;19087;51.062;3.754;2022-09-09T14:56:51;24.00;99.90
32698;DHT22;19087;51.062;3.754;2022-09-09T14:59:17;23.60;99.90
32698;DHT22;19087;51.062;3.754;2022-09-09T15:01:43;23.30;99.90
32698;DHT22;19087;51.062;3.754;2022-09-09T15:04:12;23.00;99.90
32698;DHT22;19087;51.062;3.754;2022-09-09T15:06:40;22.90;99.90
32698;DHT22;19087;51.062;3.754;2022-09-09T15:09:07;23.10;99.90
32698;DHT22;19087;51.062;3.754;2022-09-09T15:11:35;23.20;99.90
32698;DHT22;19087;51.062;3.754;2022-09-09T15:14:04;23.10;99.90
32698;DHT22;19087;51.062;3.754;2022-09-09T15:16:30;22.90;99.90
32698;DHT22;19087;51.062;3.754;2022-09-09T15:18:58;23.00;99.90
32698;DHT22;19087;51.062;3.754;2022-09-09T15:21:26;23.10;99.90
32698;DHT22;19087;51.062;3.754;2022-09-09T15:23:53;23.30;99.90
32698;DHT22;19087;51.062;3.754;2022-09-09T15:26:19;23.50;99.90
32698;DHT22;19087;51.062;3.754;2022-09-09T15:28:46;23.50;99.90
32698;DHT22;19087;51.062;3.754;2022-09-09T15:31:18;23.50;99.90
32698;DHT22;19087;51.062;3.754;2022-09-09T15:33:52;23.60;99.90
32698;DHT22;19087;51.062;3.754;2022-09-09T15:38:43;23.60;99.90
32698;DHT22;19087;51.062;3.754;2022-09-09T15:41:10;23.40;99.90
32698;DHT22;19087;51.062;3.754;2022-09-09T15:43:36;23.30;99.90
32698;DHT22;19087;51.062;3.754;2022-09-09T15:48:44;22.90;99.90
32698;DHT22;19087;51.062;3.754;2022-09-09T15:51:10;22.80;99.90
32698;DHT22;19087;51.062;3.754;2022-09-09T15:53:40;22.60;99.90
32698;DHT22;19087;51.062;3.754;2022-09-09T15:56:06;22.40;99.90
32698;DHT22;19087;51.062;3.754;2022-09-09T15:58:34;22.10;99.90
32698;DHT22;19087;51.062;3.754;2022-09-09T16:01:05;21.90;99.90
32698;DHT22;19087;51.062;3.754;2022-09-09T16:03:35;21.90;99.90
32698;DHT22;19087;51.062;3.754;2022-09-09T16:06:01;21.90;99.90
32698;DHT22;19087;51.062;3.754;2022-09-09T16:08:39;21.90;99.90
32698;DHT22;19087;51.062;3.754;2022-09-09T16:11:13;22.10;99.90
32698;DHT22;19087;51.062;3.754;2022-09-09T16:13:43;22.20;99.90
32698;DHT22;19087;51.062;3.754;2022-09-09T16:16:12;22.30;99.90
32698;DHT22;19087;51.062;3.754;2022-09-09T16:18:41;22.10;99.90
32698;DHT22;19087;51.062;3.754;2022-09-09T16:21:11;22.20;99.90
32698;DHT22;19087;51.062;3.754;2022-09-09T16:23:38;22.20;99.90
32698;DHT22;19087;51.062;3.754;2022-09-09T16:26:04;22.20;99.90
32698;DHT22;19087;51.062;3.754;2022-09-09T16:28:30;22.20;99.90
32698;DHT22;19087;51.062;3.754;2022-09-09T16:30:56;22.20;99.90
32698;DHT22;19087;51.062;3.754;2022-09-09T16:33:24;22.30;99.90
32698;DHT22;19087;51.062;3.754;2022-09-09T16:35:51;22.10;99.90
32698;DHT22;19087;51.062;3.754;2022-09-09T16:38:17;22.00;99.90
32698;DHT22;19087;51.062;3.754;2022-09-09T16:40:43;21.90;99.90
32698;DHT22;19087;51.062;3.754;2022-09-09T16:43:09;21.80;99.90
32698;DHT22;19087;51.062;3.754;2022-09-09T16:45:42;21.70;99.90
32698;DHT22;19087;51.062;3.754;2022-09-09T16:56:43;21.60;99.90
32698;DHT22;19087;51.062;3.754;2022-09-09T16:59:20;21.80;99.90
32698;DHT22;19087;51.062;3.754;2022-09-09T17:01:54;21.80;99.90
32698;DHT22;19087;51.062;3.754;2022-09-09T17:04:28;21.70;99.90
32698;DHT22;19087;51.062;3.754;2022-09-09T17:06:55;21.70;99.90
32698;DHT22;19087;51.062;3.754;2022-09-09T17:09:28;21.80;99.90
32698;DHT22;19087;51.062;3.754;2022-09-09T17:11:54;21.80;99.90
32698;DHT22;19087;51.062;3.754;2022-09-09T17:14:22;21.50;99.90
32698;DHT22;19087;51.062;3.754;2022-09-09T17:16:49;20.90;99.90
32698;DHT22;19087;51.062;3.754;2022-09-09T17:19:15;20.40;99.90
32698;DHT22;19087;51.062;3.754;2022-09-09T17:21:41;19.70;99.90
32698;DHT22;19087;51.062;3.754;2022-09-09T17:24:08;19.50;99.90
32698;DHT22;19087;51.062;3.754;2022-09-09T17:26:34;19.60;99.90
32698;DHT22;19087;51.062;3.754;2022-09-09T17:29:01;19.50;99.90
32698;DHT22;19087;51.062;3.754;2022-09-09T17:31:28;19.00;99.90
32698;DHT22;19087;51.062;3.754;2022-09-09T17:34:00;18.80;99.90
32698;DHT22;19087;51.062;3.754;2022-09-09T17:36:54;18.60;99.90
32698;DHT22;19087;51.062;3.754;2022-09-09T17:39:21;18.60;99.90
32698;DHT22;19087;51.062;3.754;2022-09-09T17:41:46;18.60;99.90
32698;DHT22;19087;51.062;3.754;2022-09-09T17:44:12;18.50;99.90
32698;DHT22;19087;51.062;3.754;2022-09-09T17:46:42;18.50;99.90
32698;DHT22;19087;51.062;3.754;2022-09-09T17:49:13;18.50;99.90
32698;DHT22;19087;51.062;3.754;2022-09-09T17:51:40;18.60;99.90
32698;DHT22;19087;51.062;3.754;2022-09-09T17:54:10;18.50;99.90
32698;DHT22;19087;51.062;3.754;2022-09-09T17:56:38;18.50;99.90
32698;DHT22;19087;51.062;3.754;2022-09-09T17:59:06;18.50;99.90
32698;DHT22;19087;51.062;3.754;2022-09-09T18:01:34;18.50;99.90
32698;DHT22;19087;51.062;3.754;2022-09-09T18:04:02;18.70;99.90
32698;DHT22;19087;51.062;3.754;2022-09-09T18:06:35;18.70;99.90
32698;DHT22;19087;51.062;3.754;2022-09-09T18:09:04;18.90;99.90
32698;DHT22;19087;51.062;3.754;2022-09-09T18:11:36;19.00;99.90
32698;DHT22;19087;51.062;3.754;2022-09-09T18:14:04;19.10;99.90